sensor_id;sensor_type;location;lat;lon;timestamp;pressure;altitude;pressure_sealevel;temperature;humidity
60089;BME280;45961;53.574;55.878;2023-03-02T00:00:51;98369.84;;;-9.34;77.90
60089;BME280;45961;53.574;55.878;2023-03-02T00:03:03;98364.91;;;-9.33;77.92
60089;BME280;45961;53.574;55.878;2023-03-02T00:04:06;98366.91;;;-9.42;78.09
60089;BME280;45961;53.574;55.878;2023-03-02T00:05:09;98370.25;;;-9.41;78.33
60089;BME280;45961;53.574;55.878;2023-03-02T00:06:10;98378.22;;;-9.34;78.35
60089;BME280;45961;53.574;55.878;2023-03-02T00:07:15;98387.72;;;-9.43;78.39
60089;BME280;45961;53.574;55.878;2023-03-02T00:08:19;98377.63;;;-9.45;78.51
60089;BME280;45961;53.574;55.878;2023-03-02T00:09:20;98368.91;;;-9.36;78.49
60089;BME280;45961;53.574;55.878;2023-03-02T00:10:21;98377.72;;;-9.28;78.62
60089;BME280;45961;53.574;55.878;2023-03-02T00:11:22;98368.31;;;-9.32;78.58
60089;BME280;45961;53.574;55.878;2023-03-02T00:12:25;98386.00;;;-9.29;78.41
60089;BME280;45961;53.574;55.878;2023-03-02T00:13:31;98385.25;;;-9.28;78.57
60089;BME280;45961;53.574;55.878;2023-03-02T00:14:33;98377.53;;;-9.31;78.70
60089;BME280;45961;53.574;55.878;2023-03-02T00:15:34;98382.72;;;-9.28;78.70
60089;BME280;45961;53.574;55.878;2023-03-02T00:16:35;98383.59;;;-9.28;78.81
60089;BME280;45961;53.574;55.878;2023-03-02T00:17:37;98413.56;;;-9.29;78.85
60089;BME280;45961;53.574;55.878;2023-03-02T00:18:38;98390.13;;;-9.30;78.81
60089;BME280;45961;53.574;55.878;2023-03-02T00:19:39;98384.63;;;-9.24;78.88
60089;BME280;45961;53.574;55.878;2023-03-02T00:20:40;98392.91;;;-9.25;78.81
60089;BME280;45961;53.574;55.878;2023-03-02T00:21:41;98386.44;;;-9.22;78.86
60089;BME280;45961;53.574;55.878;2023-03-02T00:22:43;98397.16;;;-9.24;78.94
60089;BME280;45961;53.574;55.878;2023-03-02T00:23:45;98401.13;;;-9.13;79.01
60089;BME280;45961;53.574;55.878;2023-03-02T00:24:47;98396.88;;;-9.14;79.05
60089;BME280;45961;53.574;55.878;2023-03-02T00:25:47;98398.09;;;-9.07;79.02
60089;BME280;45961;53.574;55.878;2023-03-02T00:26:49;98397.50;;;-9.03;79.01
60089;BME280;45961;53.574;55.878;2023-03-02T00:27:49;98399.47;;;-8.98;78.99
60089;BME280;45961;53.574;55.878;2023-03-02T00:28:50;98416.41;;;-8.93;78.92
60089;BME280;45961;53.574;55.878;2023-03-02T00:29:51;98395.50;;;-8.94;78.83
60089;BME280;45961;53.574;55.878;2023-03-02T00:30:52;98398.97;;;-8.92;78.82
60089;BME280;45961;53.574;55.878;2023-03-02T00:31:53;98400.88;;;-8.88;78.80
60089;BME280;45961;53.574;55.878;2023-03-02T00:32:55;98396.34;;;-8.93;78.56
60089;BME280;45961;53.574;55.878;2023-03-02T00:33:58;98395.56;;;-8.92;78.61
60089;BME280;45961;53.574;55.878;2023-03-02T00:34:58;98397.47;;;-8.88;78.75
60089;BME280;45961;53.574;55.878;2023-03-02T00:36:00;98401.72;;;-8.87;78.69
60089;BME280;45961;53.574;55.878;2023-03-02T00:37:02;98396.72;;;-8.87;78.65
60089;BME280;45961;53.574;55.878;2023-03-02T00:38:03;98395.06;;;-8.87;78.74
60089;BME280;45961;53.574;55.878;2023-03-02T00:39:04;98395.13;;;-8.85;78.84
60089;BME280;45961;53.574;55.878;2023-03-02T00:40:05;98390.66;;;-8.76;78.70
60089;BME280;45961;53.574;55.878;2023-03-02T00:41:07;98399.66;;;-8.80;78.37
60089;BME280;45961;53.574;55.878;2023-03-02T00:42:09;98388.59;;;-8.83;78.25
60089;BME280;45961;53.574;55.878;2023-03-02T00:43:10;98397.03;;;-8.81;78.24
60089;BME280;45961;53.574;55.878;2023-03-02T00:44:11;98401.53;;;-8.76;78.23
60089;BME280;45961;53.574;55.878;2023-03-02T00:45:20;98397.56;;;-8.72;77.93
60089;BME280;45961;53.574;55.878;2023-03-02T00:46:23;98395.75;;;-8.75;78.22
60089;BME280;45961;53.574;55.878;2023-03-02T00:47:25;98387.69;;;-8.69;78.11
60089;BME280;45961;53.574;55.878;2023-03-02T00:48:26;98395.13;;;-8.71;78.14
60089;BME280;45961;53.574;55.878;2023-03-02T00:49:27;98401.00;;;-8.70;77.99
60089;BME280;45961;53.574;55.878;2023-03-02T00:50:29;98394.75;;;-8.62;77.99
60089;BME280;45961;53.574;55.878;2023-03-02T00:51:30;98387.06;;;-8.65;78.04
60089;BME280;45961;53.574;55.878;2023-03-02T00:52:32;98390.78;;;-8.58;78.28
60089;BME280;45961;53.574;55.878;2023-03-02T00:53:34;98391.81;;;-8.55;78.25
60089;BME280;45961;53.574;55.878;2023-03-02T00:54:36;98399.16;;;-8.58;78.26
60089;BME280;45961;53.574;55.878;2023-03-02T00:55:37;98395.97;;;-8.55;78.52
60089;BME280;45961;53.574;55.878;2023-03-02T00:56:38;98398.88;;;-8.48;78.48
60089;BME280;45961;53.574;55.878;2023-03-02T00:57:40;98397.25;;;-8.47;78.62
60089;BME280;45961;53.574;55.878;2023-03-02T00:58:41;98401.72;;;-8.41;78.64
60089;BME280;45961;53.574;55.878;2023-03-02T00:59:42;98402.56;;;-8.41;78.65
60089;BME280;45961;53.574;55.878;2023-03-02T01:01:10;98402.16;;;-8.32;78.57
60089;BME280;45961;53.574;55.878;2023-03-02T01:02:15;98408.69;;;-8.36;78.69
60089;BME280;45961;53.574;55.878;2023-03-02T01:03:16;98401.16;;;-8.36;78.58
60089;BME280;45961;53.574;55.878;2023-03-02T01:04:17;98408.22;;;-8.29;78.83
60089;BME280;45961;53.574;55.878;2023-03-02T01:05:18;98409.63;;;-8.34;78.78
60089;BME280;45961;53.574;55.878;2023-03-02T01:06:20;98403.81;;;-8.33;78.84
60089;BME280;45961;53.574;55.878;2023-03-02T01:07:21;98409.69;;;-8.32;78.95
60089;BME280;45961;53.574;55.878;2023-03-02T01:08:24;98401.66;;;-8.27;78.89
60089;BME280;45961;53.574;55.878;2023-03-02T01:09:25;98409.03;;;-8.13;78.87
60089;BME280;45961;53.574;55.878;2023-03-02T01:10:26;98403.59;;;-8.21;78.82
60089;BME280;45961;53.574;55.878;2023-03-02T01:11:27;98410.06;;;-8.10;78.79
60089;BME280;45961;53.574;55.878;2023-03-02T01:12:28;98409.03;;;-8.13;78.83
60089;BME280;45961;53.574;55.878;2023-03-02T01:13:29;98408.41;;;-8.09;78.85
60089;BME280;45961;53.574;55.878;2023-03-02T01:14:31;98405.84;;;-8.11;78.86
60089;BME280;45961;53.574;55.878;2023-03-02T01:15:32;98413.03;;;-8.01;78.86
60089;BME280;45961;53.574;55.878;2023-03-02T01:16:34;98402.69;;;-8.07;78.74
60089;BME280;45961;53.574;55.878;2023-03-02T01:17:35;98400.34;;;-8.04;78.76
60089;BME280;45961;53.574;55.878;2023-03-02T01:18:36;98396.97;;;-8.04;78.68
60089;BME280;45961;53.574;55.878;2023-03-02T01:19:39;98409.06;;;-7.97;78.81
60089;BME280;45961;53.574;55.878;2023-03-02T01:20:40;98407.09;;;-8.03;78.66
60089;BME280;45961;53.574;55.878;2023-03-02T01:21:41;98409.91;;;-7.97;78.63
60089;BME280;45961;53.574;55.878;2023-03-02T01:22:44;98405.50;;;-8.01;78.63
60089;BME280;45961;53.574;55.878;2023-03-02T01:23:45;98406.13;;;-8.05;78.69
60089;BME280;45961;53.574;55.878;2023-03-02T01:24:46;98414.47;;;-8.06;78.62
60089;BME280;45961;53.574;55.878;2023-03-02T01:25:46;98407.72;;;-8.07;78.65
60089;BME280;45961;53.574;55.878;2023-03-02T01:26:47;98412.63;;;-8.08;78.53
60089;BME280;45961;53.574;55.878;2023-03-02T01:27:48;98408.34;;;-8.11;78.56
60089;BME280;45961;53.574;55.878;2023-03-02T01:28:49;98400.47;;;-8.17;78.60
60089;BME280;45961;53.574;55.878;2023-03-02T01:29:55;98409.13;;;-8.12;78.69
60089;BME280;45961;53.574;55.878;2023-03-02T01:30:56;98409.03;;;-8.13;78.68
60089;BME280;45961;53.574;55.878;2023-03-02T01:31:57;98411.94;;;-8.06;78.71
60089;BME280;45961;53.574;55.878;2023-03-02T01:32:58;98404.41;;;-8.06;78.72
60089;BME280;45961;53.574;55.878;2023-03-02T01:33:59;98401.28;;;-8.02;78.46
60089;BME280;45961;53.574;55.878;2023-03-02T01:35:00;98409.44;;;-8.06;78.42
60089;BME280;45961;53.574;55.878;2023-03-02T01:36:02;98411.78;;;-8.09;78.32
60089;BME280;45961;53.574;55.878;2023-03-02T01:37:03;98411.63;;;-8.12;78.43
60089;BME280;45961;53.574;55.878;2023-03-02T01:38:04;98409.47;;;-8.21;78.40
60089;BME280;45961;53.574;55.878;2023-03-02T01:39:05;98409.81;;;-8.14;78.39
60089;BME280;45961;53.574;55.878;2023-03-02T01:40:07;98409.47;;;-8.21;78.40
60089;BME280;45961;53.574;55.878;2023-03-02T01:41:09;98408.31;;;-8.27;78.55
60089;BME280;45961;53.574;55.878;2023-03-02T01:42:10;98403.53;;;-8.23;78.54
60089;BME280;45961;53.574;55.878;2023-03-02T01:43:13;98399.53;;;-8.19;78.62
60089;BME280;45961;53.574;55.878;2023-03-02T01:46:56;98394.75;;;-8.14;78.71
60089;BME280;45961;53.574;55.878;2023-03-02T01:47:57;98392.31;;;-8.13;78.64
60089;BME280;45961;53.574;55.878;2023-03-02T01:49:04;98398.75;;;-8.18;78.63
60089;BME280;45961;53.574;55.878;2023-03-02T01:50:25;98394.59;;;-8.17;78.59
60089;BME280;45961;53.574;55.878;2023-03-02T01:51:34;98397.34;;;-8.13;78.63
60089;BME280;45961;53.574;55.878;2023-03-02T01:52:38;98400.31;;;-8.20;78.56
60089;BME280;45961;53.574;55.878;2023-03-02T01:53:42;98397.72;;;-8.22;78.61
60089;BME280;45961;53.574;55.878;2023-03-02T01:54:47;98390.59;;;-8.14;78.68
60089;BME280;45961;53.574;55.878;2023-03-02T01:55:50;98398.91;;;-8.15;78.47
60089;BME280;45961;53.574;55.878;2023-03-02T01:56:55;98390.59;;;-8.14;78.51
60089;BME280;45961;53.574;55.878;2023-03-02T01:58:00;98385.63;;;-8.29;78.46
60089;BME280;45961;53.574;55.878;2023-03-02T01:59:08;98392.19;;;-8.16;78.42
60089;BME280;45961;53.574;55.878;2023-03-02T02:00:36;98409.00;;;-8.30;78.50
60089;BME280;45961;53.574;55.878;2023-03-02T02:01:41;98401.09;;;-8.21;78.45
60089;BME280;45961;53.574;55.878;2023-03-02T02:02:54;98389.97;;;-8.26;78.37
60089;BME280;45961;53.574;55.878;2023-03-02T02:04:08;98406.44;;;-8.31;78.22
60089;BME280;45961;53.574;55.878;2023-03-02T02:05:22;98404.66;;;-8.32;78.18
60089;BME280;45961;53.574;55.878;2023-03-02T02:06:41;98401.53;;;-8.28;78.21
60089;BME280;45961;53.574;55.878;2023-03-02T02:07:44;98394.50;;;-8.35;78.16
60089;BME280;45961;53.574;55.878;2023-03-02T02:08:46;98376.97;;;-8.66;78.11
60089;BME280;45961;53.574;55.878;2023-03-02T02:09:50;98413.22;;;-8.45;78.37
60089;BME280;45961;53.574;55.878;2023-03-02T02:10:53;98416.88;;;-8.40;78.71
60089;BME280;45961;53.574;55.878;2023-03-02T02:11:55;98408.38;;;-8.42;78.40
60089;BME280;45961;53.574;55.878;2023-03-02T02:12:58;98409.25;;;-8.41;78.54
60089;BME280;45961;53.574;55.878;2023-03-02T02:14:03;98417.56;;;-8.42;78.59
60089;BME280;45961;53.574;55.878;2023-03-02T02:15:07;98421.72;;;-8.43;78.61
60089;BME280;45961;53.574;55.878;2023-03-02T02:16:08;98412.72;;;-8.39;78.74
60089;BME280;45961;53.574;55.878;2023-03-02T02:17:10;98426.13;;;-8.39;78.72
60089;BME280;45961;53.574;55.878;2023-03-02T02:18:15;98423.38;;;-8.43;78.80
60089;BME280;45961;53.574;55.878;2023-03-02T02:21:01;98430.28;;;-8.39;78.82
60089;BME280;45961;53.574;55.878;2023-03-02T02:22:02;98434.31;;;-8.41;78.75
60089;BME280;45961;53.574;55.878;2023-03-02T02:23:41;98447.25;;;-8.50;78.92
60089;BME280;45961;53.574;55.878;2023-03-02T02:24:54;98407.47;;;-8.59;79.00
60089;BME280;45961;53.574;55.878;2023-03-02T02:26:10;98427.66;;;-8.41;79.07
60089;BME280;45961;53.574;55.878;2023-03-02T02:27:14;98433.47;;;-8.42;79.01
60089;BME280;45961;53.574;55.878;2023-03-02T02:28:20;98432.88;;;-8.36;79.02
60089;BME280;45961;53.574;55.878;2023-03-02T02:29:34;98438.19;;;-8.32;78.81
60089;BME280;45961;53.574;55.878;2023-03-02T02:30:39;98427.03;;;-8.37;78.84
60089;BME280;45961;53.574;55.878;2023-03-02T02:31:50;98429.56;;;-8.37;78.85
60089;BME280;45961;53.574;55.878;2023-03-02T02:32:54;98421.31;;;-8.34;78.68
60089;BME280;45961;53.574;55.878;2023-03-02T02:34:00;98423.50;;;-8.40;78.77
60089;BME280;45961;53.574;55.878;2023-03-02T02:35:09;98424.13;;;-8.45;78.80
60089;BME280;45961;53.574;55.878;2023-03-02T02:36:17;98426.00;;;-8.40;78.81
60089;BME280;45961;53.574;55.878;2023-03-02T02:37:23;98437.81;;;-8.39;78.76
60089;BME280;45961;53.574;55.878;2023-03-02T02:38:27;98430.72;;;-8.30;78.78
60089;BME280;45961;53.574;55.878;2023-03-02T02:39:29;98436.34;;;-8.34;78.63
60089;BME280;45961;53.574;55.878;2023-03-02T02:40:53;98432.78;;;-8.39;78.57
60089;BME280;45961;53.574;55.878;2023-03-02T02:42:03;98422.66;;;-8.41;78.72
60089;BME280;45961;53.574;55.878;2023-03-02T02:43:05;98427.03;;;-8.37;78.70
60089;BME280;45961;53.574;55.878;2023-03-02T02:44:11;98432.88;;;-8.36;78.89
60089;BME280;45961;53.574;55.878;2023-03-02T02:45:23;98421.88;;;-8.24;78.82
60089;BME280;45961;53.574;55.878;2023-03-02T02:46:25;98407.19;;;-8.32;78.69
60089;BME280;45961;53.574;55.878;2023-03-02T02:47:26;98428.47;;;-8.26;78.56
60089;BME280;45961;53.574;55.878;2023-03-02T02:48:30;98430.72;;;-8.30;78.42
60089;BME280;45961;53.574;55.878;2023-03-02T02:49:35;98428.91;;;-8.33;78.44
60089;BME280;45961;53.574;55.878;2023-03-02T02:50:37;98424.53;;;-8.37;78.46
60089;BME280;45961;53.574;55.878;2023-03-02T02:51:40;98431.13;;;-8.39;78.40
60089;BME280;45961;53.574;55.878;2023-03-02T02:52:41;98426.81;;;-8.25;78.50
60089;BME280;45961;53.574;55.878;2023-03-02T02:53:58;98415.31;;;-8.36;78.31
60089;BME280;45961;53.574;55.878;2023-03-02T02:55:05;98434.34;;;-8.25;78.23
60089;BME280;45961;53.574;55.878;2023-03-02T02:56:10;98429.56;;;-8.37;78.12
60089;BME280;45961;53.574;55.878;2023-03-02T02:57:15;98428.63;;;-8.39;78.21
60089;BME280;45961;53.574;55.878;2023-03-02T02:58:30;98426.81;;;-8.25;78.21
60089;BME280;45961;53.574;55.878;2023-03-02T02:59:37;98437.22;;;-8.34;78.23
60089;BME280;45961;53.574;55.878;2023-03-02T03:00:41;98431.75;;;-8.27;78.30
60089;BME280;45961;53.574;55.878;2023-03-02T03:01:42;98421.88;;;-8.40;78.38
60089;BME280;45961;53.574;55.878;2023-03-02T03:02:46;98436.44;;;-8.33;78.50
60089;BME280;45961;53.574;55.878;2023-03-02T03:03:55;98421.28;;;-8.51;78.71
60089;BME280;45961;53.574;55.878;2023-03-02T03:04:57;98435.50;;;-8.35;79.07
60089;BME280;45961;53.574;55.878;2023-03-02T03:06:07;98428.75;;;-8.36;79.03
60089;BME280;45961;53.574;55.878;2023-03-02T03:07:20;98439.97;;;-8.29;79.11
60089;BME280;45961;53.574;55.878;2023-03-02T03:10:25;98435.72;;;-8.15;78.96
60089;BME280;45961;53.574;55.878;2023-03-02T03:11:30;98439.25;;;-8.12;79.18
60089;BME280;45961;53.574;55.878;2023-03-02T03:12:32;98436.88;;;-8.09;78.98
60089;BME280;45961;53.574;55.878;2023-03-02T03:13:34;98444.97;;;-8.14;78.83
60089;BME280;45961;53.574;55.878;2023-03-02T03:14:39;98448.94;;;-8.18;78.90
60089;BME280;45961;53.574;55.878;2023-03-02T03:15:42;98450.47;;;-8.05;78.95
60089;BME280;45961;53.574;55.878;2023-03-02T03:16:45;98450.41;;;-8.07;78.85
60089;BME280;45961;53.574;55.878;2023-03-02T03:17:56;98447.09;;;-8.06;78.84
60089;BME280;45961;53.574;55.878;2023-03-02T03:19:27;98440.34;;;-8.07;78.74
60089;BME280;45961;53.574;55.878;2023-03-02T03:20:27;98438.94;;;-8.02;78.85
60089;BME280;45961;53.574;55.878;2023-03-02T03:21:29;98432.19;;;-8.03;78.97
60089;BME280;45961;53.574;55.878;2023-03-02T03:22:30;98438.09;;;-8.02;79.01
60089;BME280;45961;53.574;55.878;2023-03-02T03:23:31;98461.09;;;-7.95;79.14
60089;BME280;45961;53.574;55.878;2023-03-02T03:24:33;98438.56;;;-7.93;78.94
60089;BME280;45961;53.574;55.878;2023-03-02T03:25:35;98436.03;;;-7.93;79.03
60089;BME280;45961;53.574;55.878;2023-03-02T03:26:56;98440.53;;;-7.87;79.21
60089;BME280;45961;53.574;55.878;2023-03-02T03:27:58;98447.97;;;-7.89;79.20
60089;BME280;45961;53.574;55.878;2023-03-02T03:29:00;98429.78;;;-7.85;79.22
60089;BME280;45961;53.574;55.878;2023-03-02T03:30:04;98420.28;;;-7.90;79.09
60089;BME280;45961;53.574;55.878;2023-03-02T03:31:07;98439.59;;;-7.73;79.15
60089;BME280;45961;53.574;55.878;2023-03-02T03:32:08;98423.19;;;-7.83;79.08
60089;BME280;45961;53.574;55.878;2023-03-02T03:33:10;98432.84;;;-7.74;79.10
60089;BME280;45961;53.574;55.878;2023-03-02T03:34:10;98443.53;;;-7.78;79.05
60089;BME280;45961;53.574;55.878;2023-03-02T03:35:12;98446.91;;;-7.78;78.98
60089;BME280;45961;53.574;55.878;2023-03-02T03:36:13;98451.53;;;-7.69;78.91
60089;BME280;45961;53.574;55.878;2023-03-02T03:37:15;98459.53;;;-7.76;78.68
60089;BME280;45961;53.574;55.878;2023-03-02T03:38:17;98451.47;;;-7.71;78.95
60089;BME280;45961;53.574;55.878;2023-03-02T03:39:20;98446.34;;;-7.72;78.70
60089;BME280;45961;53.574;55.878;2023-03-02T03:40:22;98449.41;;;-7.78;78.77
60089;BME280;45961;53.574;55.878;2023-03-02T03:41:24;98458.91;;;-7.72;78.91
60089;BME280;45961;53.574;55.878;2023-03-02T03:42:25;98455.53;;;-7.73;78.97
60089;BME280;45961;53.574;55.878;2023-03-02T03:43:28;98455.63;;;-7.71;79.03
60089;BME280;45961;53.574;55.878;2023-03-02T03:44:30;98464.88;;;-7.70;79.01
60089;BME280;45961;53.574;55.878;2023-03-02T03:45:31;98455.94;;;-7.65;79.19
60089;BME280;45961;53.574;55.878;2023-03-02T03:46:33;98457.28;;;-7.55;79.14
60089;BME280;45961;53.574;55.878;2023-03-02T03:47:34;98469.63;;;-7.43;79.13
60089;BME280;45961;53.574;55.878;2023-03-02T03:48:36;98464.25;;;-7.50;78.81
60089;BME280;45961;53.574;55.878;2023-03-02T03:49:37;98461.13;;;-7.46;78.86
60089;BME280;45961;53.574;55.878;2023-03-02T03:50:40;98468.72;;;-7.44;78.74
60089;BME280;45961;53.574;55.878;2023-03-02T03:51:41;98478.53;;;-7.32;78.61
60089;BME280;45961;53.574;55.878;2023-03-02T03:52:42;98471.31;;;-7.26;78.69
60089;BME280;45961;53.574;55.878;2023-03-02T03:54:04;98468.19;;;-7.38;78.45
60089;BME280;45961;53.574;55.878;2023-03-02T03:55:14;98481.44;;;-7.41;78.52
60089;BME280;45961;53.574;55.878;2023-03-02T03:56:17;98468.59;;;-7.31;78.63
60089;BME280;45961;53.574;55.878;2023-03-02T03:57:18;98472.81;;;-7.30;78.45
60089;BME280;45961;53.574;55.878;2023-03-02T03:58:19;98474.63;;;-7.27;78.51
60089;BME280;45961;53.574;55.878;2023-03-02T03:59:22;98473.59;;;-7.31;78.43
60089;BME280;45961;53.574;55.878;2023-03-02T04:00:28;98478.94;;;-7.25;78.45
60089;BME280;45961;53.574;55.878;2023-03-02T04:02:38;98472.13;;;-7.27;78.28
60089;BME280;45961;53.574;55.878;2023-03-02T04:03:39;98478.28;;;-7.21;78.15
60089;BME280;45961;53.574;55.878;2023-03-02T04:04:40;98481.59;;;-7.22;78.19
60089;BME280;45961;53.574;55.878;2023-03-02T04:05:47;98480.13;;;-7.34;78.12
60089;BME280;45961;53.574;55.878;2023-03-02T04:06:50;98486.31;;;-7.28;78.19
60089;BME280;45961;53.574;55.878;2023-03-02T04:07:51;98477.28;;;-7.24;78.24
60089;BME280;45961;53.574;55.878;2023-03-02T04:08:52;98476.50;;;-7.23;78.14
60089;BME280;45961;53.574;55.878;2023-03-02T04:09:53;98472.13;;;-7.27;78.16
60089;BME280;45961;53.574;55.878;2023-03-02T04:11:04;98474.28;;;-7.17;78.15
60089;BME280;45961;53.574;55.878;2023-03-02T04:12:07;98479.94;;;-7.05;78.13
60089;BME280;45961;53.574;55.878;2023-03-02T04:13:09;98484.00;;;-6.90;77.88
60089;BME280;45961;53.574;55.878;2023-03-02T04:14:11;98486.31;;;-6.95;77.85
60089;BME280;45961;53.574;55.878;2023-03-02T04:15:14;98482.25;;;-6.91;77.57
60089;BME280;45961;53.574;55.878;2023-03-02T04:16:17;98483.06;;;-6.92;77.58
60089;BME280;45961;53.574;55.878;2023-03-02T04:17:19;98479.25;;;-6.84;77.60
60089;BME280;45961;53.574;55.878;2023-03-02T04:18:22;98494.50;;;-6.81;77.36
60089;BME280;45961;53.574;55.878;2023-03-02T04:19:23;98488.47;;;-6.85;77.21
60089;BME280;45961;53.574;55.878;2023-03-02T04:20:28;98487.19;;;-6.77;77.30
60089;BME280;45961;53.574;55.878;2023-03-02T04:21:30;98487.41;;;-6.72;77.21
60089;BME280;45961;53.574;55.878;2023-03-02T04:22:31;98487.97;;;-6.78;77.11
60089;BME280;45961;53.574;55.878;2023-03-02T04:23:32;98491.88;;;-6.66;77.14
60089;BME280;45961;53.574;55.878;2023-03-02T04:24:33;98498.69;;;-6.64;77.10
60089;BME280;45961;53.574;55.878;2023-03-02T04:25:37;98495.41;;;-6.63;77.11
60089;BME280;45961;53.574;55.878;2023-03-02T04:26:45;98497.69;;;-6.67;77.13
60089;BME280;45961;53.574;55.878;2023-03-02T04:27:47;98503.91;;;-6.61;77.30
60089;BME280;45961;53.574;55.878;2023-03-02T04:28:49;98495.41;;;-6.63;77.18
60089;BME280;45961;53.574;55.878;2023-03-02T04:29:51;98494.13;;;-6.55;77.08
60089;BME280;45961;53.574;55.878;2023-03-02T04:30:53;98493.56;;;-6.49;76.98
60089;BME280;45961;53.574;55.878;2023-03-02T04:31:54;98497.25;;;-6.42;76.94
60089;BME280;45961;53.574;55.878;2023-03-02T04:32:56;98496.13;;;-6.48;76.92
60089;BME280;45961;53.574;55.878;2023-03-02T04:33:58;98505.44;;;-6.47;76.87
60089;BME280;45961;53.574;55.878;2023-03-02T04:35:00;98503.63;;;-6.49;76.80
60089;BME280;45961;53.574;55.878;2023-03-02T04:36:01;98507.66;;;-6.53;76.89
60089;BME280;45961;53.574;55.878;2023-03-02T04:37:03;98511.13;;;-6.51;76.90
60089;BME280;45961;53.574;55.878;2023-03-02T04:38:04;98502.91;;;-6.47;76.85
60089;BME280;45961;53.574;55.878;2023-03-02T04:39:06;98501.75;;;-6.35;76.74
60089;BME280;45961;53.574;55.878;2023-03-02T04:40:08;98502.91;;;-6.29;76.72
60089;BME280;45961;53.574;55.878;2023-03-02T04:41:09;98503.34;;;-6.19;76.67
60089;BME280;45961;53.574;55.878;2023-03-02T04:42:10;98507.53;;;-6.20;76.52
60089;BME280;45961;53.574;55.878;2023-03-02T04:43:11;98489.69;;;-6.25;76.29
60089;BME280;45961;53.574;55.878;2023-03-02T04:44:12;98500.63;;;-6.24;76.41
60089;BME280;45961;53.574;55.878;2023-03-02T04:45:13;98500.13;;;-6.17;76.56
60089;BME280;45961;53.574;55.878;2023-03-02T04:46:19;98500.75;;;-6.03;76.36
60089;BME280;45961;53.574;55.878;2023-03-02T04:47:21;98508.41;;;-6.02;76.31
60089;BME280;45961;53.574;55.878;2023-03-02T04:48:22;98501.00;;;-5.99;76.09
60089;BME280;45961;53.574;55.878;2023-03-02T04:49:23;98511.34;;;-6.10;75.99
60089;BME280;45961;53.574;55.878;2023-03-02T04:50:24;98505.72;;;-6.05;76.02
60089;BME280;45961;53.574;55.878;2023-03-02T04:51:29;98515.16;;;-6.18;76.00
60089;BME280;45961;53.574;55.878;2023-03-02T04:52:30;98512.50;;;-6.22;76.06
60089;BME280;45961;53.574;55.878;2023-03-02T04:53:31;98507.97;;;-6.11;76.27
60089;BME280;45961;53.574;55.878;2023-03-02T04:54:32;98510.97;;;-6.00;76.34
60089;BME280;45961;53.574;55.878;2023-03-02T04:55:33;98508.22;;;-5.87;76.24
60089;BME280;45961;53.574;55.878;2023-03-02T04:56:34;98519.16;;;-5.86;75.86
60089;BME280;45961;53.574;55.878;2023-03-02T04:57:35;98518.34;;;-5.85;75.97
60089;BME280;45961;53.574;55.878;2023-03-02T04:58:36;98507.41;;;-5.86;75.71
60089;BME280;45961;53.574;55.878;2023-03-02T04:59:37;98513.56;;;-5.79;75.65
60089;BME280;45961;53.574;55.878;2023-03-02T05:00:38;98520.41;;;-5.77;75.48
60089;BME280;45961;53.574;55.878;2023-03-02T05:01:39;98519.81;;;-5.90;75.36
60089;BME280;45961;53.574;55.878;2023-03-02T05:02:41;98514.22;;;-5.83;75.35
60089;BME280;45961;53.574;55.878;2023-03-02T05:03:42;98521.13;;;-5.79;75.37
60089;BME280;45961;53.574;55.878;2023-03-02T05:04:43;98513.72;;;-5.76;75.25
60089;BME280;45961;53.574;55.878;2023-03-02T05:05:44;98520.13;;;-5.65;75.18
60089;BME280;45961;53.574;55.878;2023-03-02T05:06:45;98517.59;;;-5.65;75.16
60089;BME280;45961;53.574;55.878;2023-03-02T05:07:46;98515.63;;;-5.53;75.00
60089;BME280;45961;53.574;55.878;2023-03-02T05:08:47;98524.00;;;-5.72;74.61
60089;BME280;45961;53.574;55.878;2023-03-02T05:09:48;98499.69;;;-5.89;74.83
60089;BME280;45961;53.574;55.878;2023-03-02T05:10:49;98502.28;;;-5.69;74.94
60089;BME280;45961;53.574;55.878;2023-03-02T05:11:50;98511.75;;;-5.64;74.94
60089;BME280;45961;53.574;55.878;2023-03-02T05:12:51;98509.88;;;-5.68;74.78
60089;BME280;45961;53.574;55.878;2023-03-02T05:14:05;98516.09;;;-5.61;74.76
60089;BME280;45961;53.574;55.878;2023-03-02T05:15:07;98505.25;;;-5.59;75.01
60089;BME280;45961;53.574;55.878;2023-03-02T05:16:08;98510.84;;;-5.66;74.88
60089;BME280;45961;53.574;55.878;2023-03-02T05:17:09;98512.31;;;-5.52;74.87
60089;BME280;45961;53.574;55.878;2023-03-02T05:18:10;98509.66;;;-5.55;74.51
60089;BME280;45961;53.574;55.878;2023-03-02T05:19:11;98526.25;;;-5.40;74.60
60089;BME280;45961;53.574;55.878;2023-03-02T05:20:12;98524.69;;;-5.38;74.37
60089;BME280;45961;53.574;55.878;2023-03-02T05:21:15;98520.50;;;-5.38;74.41
60089;BME280;45961;53.574;55.878;2023-03-02T05:22:16;98520.69;;;-5.33;74.20
60089;BME280;45961;53.574;55.878;2023-03-02T05:23:18;98521.22;;;-5.21;74.15
60089;BME280;45961;53.574;55.878;2023-03-02T05:24:25;98526.53;;;-5.34;73.68
60089;BME280;45961;53.574;55.878;2023-03-02T05:25:28;98529.25;;;-5.30;73.74
60089;BME280;45961;53.574;55.878;2023-03-02T05:26:29;98526.00;;;-5.27;73.99
60089;BME280;45961;53.574;55.878;2023-03-02T05:27:30;98516.91;;;-5.24;73.83
60089;BME280;45961;53.574;55.878;2023-03-02T05:28:31;98517.91;;;-5.20;73.90
60089;BME280;45961;53.574;55.878;2023-03-02T05:29:32;98522.47;;;-5.11;73.77
60089;BME280;45961;53.574;55.878;2023-03-02T05:30:33;98507.56;;;-5.26;73.49
60089;BME280;45961;53.574;55.878;2023-03-02T05:31:41;98514.81;;;-5.14;73.47
60089;BME280;45961;53.574;55.878;2023-03-02T05:32:43;98532.38;;;-5.16;73.38
60089;BME280;45961;53.574;55.878;2023-03-02T05:33:44;98523.94;;;-5.16;73.35
60089;BME280;45961;53.574;55.878;2023-03-02T05:34:45;98533.56;;;-5.08;73.25
60089;BME280;45961;53.574;55.878;2023-03-02T05:35:46;98541.47;;;-5.00;73.27
60089;BME280;45961;53.574;55.878;2023-03-02T05:36:47;98538.09;;;-5.01;73.05
60089;BME280;45961;53.574;55.878;2023-03-02T05:37:48;98543.59;;;-5.09;72.86
60089;BME280;45961;53.574;55.878;2023-03-02T05:38:49;98542.59;;;-5.13;72.69
60089;BME280;45961;53.574;55.878;2023-03-02T05:39:52;98541.06;;;-4.90;72.73
60089;BME280;45961;53.574;55.878;2023-03-02T05:40:53;98539.78;;;-4.80;72.67